PWSweather.com
Personal Weather Stations
Station Observations

EtonMackayAU

Lat: -21.263, Lon: 148.975

Elevation: 106

Station Type: Davis Vantage Vue

http://aspgweather.com/cumulus/data.php

Latest ConditionsUpdated 6:46:03 PM GMT+10:10 Saturday, Aug 24, 2019
Currently Today's Max Today's Min Today's Average
Temperature 62.4°F16.9°C 71.1°F21.7°C 60.1°F15.6°C 65.1°F18.4°C
Dew Point 49.1°F9.5°C 53.6°F12.0°C 48.6°F9.2°C 51.4°F10.8°C
Winds 5.9 mph SSE9.5 kmh SSE 20.1 mph -32.3 kmh - - 11.8 mph 19.0 kmh
Wind Gusts 7.8 mph12.6 kmh 25.5 mph41.0 kmh - -
Humidity 62% 77% 50% 62%
Pressure 30.11 in1019.6 mb 30.18 in1022.0 mb 30.06 in1017.9 mb -
Hour Temp Dew Point Humidity Winds Wind Gusts Pressure Precip Precip Rate Daily Precip Total
06:46 PM 62.4°F16.9°C 49.1°F9.5°C 62% 5.9 mph SSE9.5 kmh SSE 7.8 mph12.6 kmh 30.11 in1019.6 mb 0.00 in0.0 mm 0.00 in0.0 mm 0.00 in0.0 mm
06:41 PM 62.4°F16.9°C 49.1°F9.5°C 62% 5.5 mph SSE8.9 kmh SSE 7.8 mph12.6 kmh 30.11 in1019.6 mb 0.00 in0.0 mm 0.00 in0.0 mm 0.00 in0.0 mm
06:36 PM 62.4°F16.9°C 49.1°F9.5°C 62% 5.3 mph SSE8.5 kmh SSE 7.8 mph12.6 kmh 30.11 in1019.6 mb 0.00 in0.0 mm 0.00 in0.0 mm 0.00 in0.0 mm
06:31 PM 62.4°F16.9°C 49.1°F9.5°C 62% 5.7 mph SSE9.2 kmh SSE 7.8 mph12.6 kmh 30.11 in1019.6 mb 0.00 in0.0 mm 0.00 in0.0 mm 0.00 in0.0 mm
06:26 PM 62.4°F16.9°C 48.7°F9.3°C 61% 7.0 mph SE11.3 kmh SE 8.9 mph14.3 kmh 30.11 in1019.6 mb 0.00 in0.0 mm 0.00 in0.0 mm 0.00 in0.0 mm
06:21 PM 62.8°F17.1°C 49.1°F9.5°C 61% 7.3 mph SE11.7 kmh SE 8.9 mph14.3 kmh 30.11 in1019.6 mb 0.00 in0.0 mm 0.00 in0.0 mm 0.00 in0.0 mm
06:16 PM 62.8°F17.1°C 49.1°F9.5°C 61% 6.7 mph SSE10.8 kmh SSE 8.9 mph14.3 kmh 30.11 in1019.6 mb 0.00 in0.0 mm 0.00 in0.0 mm 0.00 in0.0 mm
06:11 PM 63.1°F17.3°C 48.9°F9.4°C 60% 7.5 mph SSE12.1 kmh SSE 10.3 mph16.6 kmh 30.11 in1019.6 mb 0.00 in0.0 mm 0.00 in0.0 mm 0.00 in0.0 mm
06:06 PM 63.3°F17.4°C 49.1°F9.5°C 60% 7.7 mph SSE12.4 kmh SSE 10.3 mph16.6 kmh 30.10 in1019.3 mb 0.00 in0.0 mm 0.00 in0.0 mm 0.00 in0.0 mm
06:01 PM 63.3°F17.4°C 48.7°F9.3°C 59% 8.3 mph SE13.4 kmh SE 8.9 mph14.3 kmh 30.10 in1019.3 mb 0.00 in0.0 mm 0.00 in0.0 mm 0.00 in0.0 mm
05:56 PM 63.7°F17.6°C 48.9°F9.4°C 59% 10.5 mph SE16.9 kmh SE 14.1 mph22.7 kmh 30.10 in1019.3 mb 0.00 in0.0 mm 0.00 in0.0 mm 0.00 in0.0 mm
05:51 PM 63.9°F17.7°C 48.7°F9.3°C 58% 10.6 mph SE17.1 kmh SE 14.1 mph22.7 kmh 30.09 in1019.0 mb 0.00 in0.0 mm 0.00 in0.0 mm 0.00 in0.0 mm
05:46 PM 64.0°F17.8°C 48.9°F9.4°C 58% 9.2 mph SE14.8 kmh SE 11.4 mph18.3 kmh 30.09 in1019.0 mb 0.00 in0.0 mm 0.00 in0.0 mm 0.00 in0.0 mm
05:41 PM 64.4°F18.0°C 49.3°F9.6°C 58% 10.6 mph SE17.1 kmh SE 14.1 mph22.7 kmh 30.09 in1019.0 mb 0.00 in0.0 mm 0.00 in0.0 mm 0.00 in0.0 mm
05:36 PM 64.8°F18.2°C 49.1°F9.5°C 57% 11.5 mph SE18.5 kmh SE 14.1 mph22.7 kmh 30.09 in1019.0 mb 0.00 in0.0 mm 0.00 in0.0 mm 0.00 in0.0 mm
05:31 PM 64.9°F18.3°C 48.7°F9.3°C 56% 12.2 mph SE19.6 kmh SE 15.4 mph24.8 kmh 30.09 in1019.0 mb 0.00 in0.0 mm 0.00 in0.0 mm 0.00 in0.0 mm
05:26 PM 65.1°F18.4°C 48.9°F9.4°C 56% 13.7 mph SE22.0 kmh SE 16.5 mph26.6 kmh 30.09 in1019.0 mb 0.00 in0.0 mm 0.00 in0.0 mm 0.00 in0.0 mm
05:21 PM 65.3°F18.5°C 48.6°F9.2°C 55% 13.9 mph SE22.4 kmh SE 16.5 mph26.6 kmh 30.09 in1019.0 mb 0.00 in0.0 mm 0.00 in0.0 mm 0.00 in0.0 mm
05:16 PM 65.7°F18.7°C 48.9°F9.4°C 55% 12.8 mph SE20.6 kmh SE 15.4 mph24.8 kmh 30.09 in1019.0 mb 0.00 in0.0 mm 0.00 in0.0 mm 0.00 in0.0 mm
05:11 PM 66.2°F19.0°C 49.5°F9.7°C 55% 11.3 mph SE18.2 kmh SE 14.1 mph22.7 kmh 30.09 in1019.0 mb 0.00 in0.0 mm 0.00 in0.0 mm 0.00 in0.0 mm
05:06 PM 66.4°F19.1°C 49.1°F9.5°C 54% 11.4 mph SE18.3 kmh SE 14.1 mph22.7 kmh 30.09 in1019.0 mb 0.00 in0.0 mm 0.00 in0.0 mm 0.00 in0.0 mm
05:01 PM 66.4°F19.1°C 49.1°F9.5°C 54% 13.3 mph SE21.4 kmh SE 15.4 mph24.8 kmh 30.09 in1019.0 mb 0.00 in0.0 mm 0.00 in0.0 mm 0.00 in0.0 mm
04:56 PM 66.0°F18.9°C 49.3°F9.6°C 55% 15.2 mph SE24.5 kmh SE 19.3 mph31.1 kmh 30.09 in1019.0 mb 0.00 in0.0 mm 0.00 in0.0 mm 0.00 in0.0 mm
04:51 PM 66.0°F18.9°C 49.3°F9.6°C 55% 14.3 mph SE23.0 kmh SE 19.3 mph31.1 kmh 30.09 in1019.0 mb 0.00 in0.0 mm 0.00 in0.0 mm 0.00 in0.0 mm
04:46 PM 66.6°F19.2°C 50.4°F10.2°C 56% 11.6 mph SE18.7 kmh SE 15.4 mph24.8 kmh 30.09 in1019.0 mb 0.00 in0.0 mm 0.00 in0.0 mm 0.00 in0.0 mm
04:41 PM 66.9°F19.4°C 50.5°F10.3°C 56% 11.9 mph SE19.2 kmh SE 14.1 mph22.7 kmh 30.09 in1019.0 mb 0.00 in0.0 mm 0.00 in0.0 mm 0.00 in0.0 mm
04:36 PM 66.9°F19.4°C 50.5°F10.3°C 56% 13.3 mph SE21.4 kmh SE 16.5 mph26.6 kmh 30.09 in1019.0 mb 0.00 in0.0 mm 0.00 in0.0 mm 0.00 in0.0 mm
04:31 PM 67.1°F19.5°C 50.4°F10.2°C 55% 11.9 mph SE19.2 kmh SE 16.5 mph26.6 kmh 30.08 in1018.6 mb 0.00 in0.0 mm 0.00 in0.0 mm 0.00 in0.0 mm
04:26 PM 67.5°F19.7°C 50.7°F10.4°C 55% 12.9 mph SE20.8 kmh SE 18.1 mph29.1 kmh 30.08 in1018.6 mb 0.00 in0.0 mm 0.00 in0.0 mm 0.00 in0.0 mm
04:21 PM 67.5°F19.7°C 50.7°F10.4°C 55% 14.2 mph SE22.9 kmh SE 18.1 mph29.1 kmh 30.08 in1018.6 mb 0.00 in0.0 mm 0.00 in0.0 mm 0.00 in0.0 mm
04:16 PM 67.6°F19.8°C 50.4°F10.2°C 54% 12.1 mph SE19.5 kmh SE 14.1 mph22.7 kmh 30.07 in1018.3 mb 0.00 in0.0 mm 0.00 in0.0 mm 0.00 in0.0 mm
04:11 PM 67.8°F19.9°C 50.0°F10.0°C 53% 13.0 mph SE20.9 kmh SE 14.1 mph22.7 kmh 30.07 in1018.3 mb 0.00 in0.0 mm 0.00 in0.0 mm 0.00 in0.0 mm
04:06 PM 68.2°F20.1°C 50.4°F10.2°C 53% 13.2 mph SE21.2 kmh SE 15.4 mph24.8 kmh 30.07 in1018.3 mb 0.00 in0.0 mm 0.00 in0.0 mm 0.00 in0.0 mm
04:01 PM 68.5°F20.3°C 50.2°F10.1°C 52% 14.4 mph SE23.2 kmh SE 18.1 mph29.1 kmh 30.07 in1018.3 mb 0.00 in0.0 mm 0.00 in0.0 mm 0.00 in0.0 mm
03:56 PM 68.4°F20.2°C 50.0°F10.0°C 52% 16.3 mph SE26.2 kmh SE 18.1 mph29.1 kmh 30.07 in1018.3 mb 0.00 in0.0 mm 0.00 in0.0 mm 0.00 in0.0 mm
03:51 PM 68.5°F20.3°C 49.6°F9.8°C 51% 12.9 mph SE20.8 kmh SE 18.1 mph29.1 kmh 30.07 in1018.3 mb 0.00 in0.0 mm 0.00 in0.0 mm 0.00 in0.0 mm
03:46 PM 68.9°F20.5°C 50.0°F10.0°C 51% 11.8 mph SE19.0 kmh SE 19.3 mph31.1 kmh 30.07 in1018.3 mb 0.00 in0.0 mm 0.00 in0.0 mm 0.00 in0.0 mm
03:41 PM 68.5°F20.3°C 49.6°F9.8°C 51% 13.7 mph SE22.0 kmh SE 19.3 mph31.1 kmh 30.07 in1018.3 mb 0.00 in0.0 mm 0.00 in0.0 mm 0.00 in0.0 mm
03:36 PM 68.5°F20.3°C 50.2°F10.1°C 52% 12.4 mph SE20.0 kmh SE 19.3 mph31.1 kmh 30.07 in1018.3 mb 0.00 in0.0 mm 0.00 in0.0 mm 0.00 in0.0 mm
03:31 PM 68.5°F20.3°C 49.6°F9.8°C 51% 12.2 mph SE19.6 kmh SE 15.4 mph24.8 kmh 30.07 in1018.3 mb 0.00 in0.0 mm 0.00 in0.0 mm 0.00 in0.0 mm
03:26 PM 68.7°F20.4°C 50.9°F10.5°C 53% 12.9 mph SE20.8 kmh SE 18.1 mph29.1 kmh 30.07 in1018.3 mb 0.00 in0.0 mm 0.00 in0.0 mm 0.00 in0.0 mm
03:21 PM 69.1°F20.6°C 50.7°F10.4°C 52% 13.7 mph SE22.0 kmh SE 18.1 mph29.1 kmh 30.06 in1017.9 mb 0.00 in0.0 mm 0.00 in0.0 mm 0.00 in0.0 mm
03:16 PM 69.6°F20.9°C 50.0°F10.0°C 50% 13.7 mph SE22.0 kmh SE 18.1 mph29.1 kmh 30.06 in1017.9 mb 0.00 in0.0 mm 0.00 in0.0 mm 0.00 in0.0 mm
03:11 PM 69.6°F20.9°C 50.5°F10.3°C 51% 13.7 mph SE22.0 kmh SE 18.1 mph29.1 kmh 30.06 in1017.9 mb 0.00 in0.0 mm 0.00 in0.0 mm 0.00 in0.0 mm
03:06 PM 68.2°F20.1°C 50.4°F10.2°C 53% 14.2 mph SE22.9 kmh SE 18.1 mph29.1 kmh 30.06 in1017.9 mb 0.00 in0.0 mm 0.00 in0.0 mm 0.00 in0.0 mm
03:01 PM 67.8°F19.9°C 50.0°F10.0°C 53% 16.5 mph SE26.6 kmh SE 22.8 mph36.7 kmh 30.07 in1018.3 mb 0.00 in0.0 mm 0.00 in0.0 mm 0.00 in0.0 mm
02:56 PM 67.6°F19.8°C 49.8°F9.9°C 53% 18.2 mph SE29.3 kmh SE 22.8 mph36.7 kmh 30.07 in1018.3 mb 0.00 in0.0 mm 0.00 in0.0 mm 0.00 in0.0 mm
02:51 PM 67.6°F19.8°C 50.4°F10.2°C 54% 15.4 mph SE24.8 kmh SE 20.6 mph33.2 kmh 30.07 in1018.3 mb 0.00 in0.0 mm 0.00 in0.0 mm 0.00 in0.0 mm
02:46 PM 67.8°F19.9°C 50.9°F10.5°C 55% 15.8 mph SE25.4 kmh SE 19.3 mph31.1 kmh 30.07 in1018.3 mb 0.00 in0.0 mm 0.00 in0.0 mm 0.00 in0.0 mm
02:41 PM 67.5°F19.7°C 51.6°F10.9°C 57% 17.2 mph SE27.7 kmh SE 21.7 mph34.9 kmh 30.07 in1018.3 mb 0.00 in0.0 mm 0.00 in0.0 mm 0.00 in0.0 mm
02:36 PM 67.6°F19.8°C 51.8°F11.0°C 57% 15.3 mph SE24.6 kmh SE 21.7 mph34.9 kmh 30.08 in1018.6 mb 0.00 in0.0 mm 0.00 in0.0 mm 0.00 in0.0 mm
02:31 PM 68.5°F20.3°C 51.6°F10.9°C 55% 14.3 mph SE23.0 kmh SE 19.3 mph31.1 kmh 30.08 in1018.6 mb 0.00 in0.0 mm 0.00 in0.0 mm 0.00 in0.0 mm
02:26 PM 69.1°F20.6°C 51.6°F10.9°C 54% 13.5 mph SE21.7 kmh SE 19.3 mph31.1 kmh 30.08 in1018.6 mb 0.00 in0.0 mm 0.00 in0.0 mm 0.00 in0.0 mm
02:21 PM 69.6°F20.9°C 51.1°F10.6°C 52% 11.8 mph SE19.0 kmh SE 19.3 mph31.1 kmh 30.08 in1018.6 mb 0.00 in0.0 mm 0.00 in0.0 mm 0.00 in0.0 mm
02:16 PM 69.8°F21.0°C 51.3°F10.7°C 52% 13.1 mph SE21.1 kmh SE 15.4 mph24.8 kmh 30.08 in1018.6 mb 0.00 in0.0 mm 0.00 in0.0 mm 0.00 in0.0 mm
02:11 PM 69.4°F20.8°C 50.4°F10.2°C 51% 14.3 mph SE23.0 kmh SE 15.4 mph24.8 kmh 30.09 in1019.0 mb 0.00 in0.0 mm 0.00 in0.0 mm 0.00 in0.0 mm
02:06 PM 69.6°F20.9°C 50.5°F10.3°C 51% 14.0 mph SE22.5 kmh SE 15.4 mph24.8 kmh 30.09 in1019.0 mb 0.00 in0.0 mm 0.00 in0.0 mm 0.00 in0.0 mm
02:01 PM 69.8°F21.0°C 51.8°F11.0°C 53% 15.0 mph SE24.1 kmh SE 19.3 mph31.1 kmh 30.09 in1019.0 mb 0.00 in0.0 mm 0.00 in0.0 mm 0.00 in0.0 mm
01:56 PM 69.8°F21.0°C 51.3°F10.7°C 52% 15.7 mph SE25.3 kmh SE 19.3 mph31.1 kmh 30.09 in1019.0 mb 0.00 in0.0 mm 0.00 in0.0 mm 0.00 in0.0 mm
01:51 PM 70.2°F21.2°C 52.2°F11.2°C 53% 15.3 mph SE24.6 kmh SE 19.3 mph31.1 kmh 30.09 in1019.0 mb 0.00 in0.0 mm 0.00 in0.0 mm 0.00 in0.0 mm
01:46 PM 70.9°F21.6°C 52.3°F11.3°C 52% 14.7 mph SE23.7 kmh SE 19.3 mph31.1 kmh 30.09 in1019.0 mb 0.00 in0.0 mm 0.00 in0.0 mm 0.00 in0.0 mm
01:41 PM 71.1°F21.7°C 51.4°F10.8°C 50% 14.0 mph SE22.5 kmh SE 19.3 mph31.1 kmh 30.09 in1019.0 mb 0.00 in0.0 mm 0.00 in0.0 mm 0.00 in0.0 mm
01:36 PM 70.3°F21.3°C 50.7°F10.4°C 50% 12.9 mph SE20.8 kmh SE 19.3 mph31.1 kmh 30.09 in1019.0 mb 0.00 in0.0 mm 0.00 in0.0 mm 0.00 in0.0 mm
01:31 PM 70.3°F21.3°C 50.7°F10.4°C 50% 11.1 mph SE17.9 kmh SE 14.1 mph22.7 kmh 30.10 in1019.3 mb 0.00 in0.0 mm 0.00 in0.0 mm 0.00 in0.0 mm
01:26 PM 69.6°F20.9°C 50.5°F10.3°C 51% 10.8 mph SE17.4 kmh SE 14.1 mph22.7 kmh 30.10 in1019.3 mb 0.00 in0.0 mm 0.00 in0.0 mm 0.00 in0.0 mm
01:21 PM 69.6°F20.9°C 51.1°F10.6°C 52% 12.6 mph SE20.3 kmh SE 19.3 mph31.1 kmh 30.11 in1019.6 mb 0.00 in0.0 mm 0.00 in0.0 mm 0.00 in0.0 mm
01:16 PM 69.4°F20.8°C 51.4°F10.8°C 53% 12.0 mph SE19.3 kmh SE 19.3 mph31.1 kmh 30.11 in1019.6 mb 0.00 in0.0 mm 0.00 in0.0 mm 0.00 in0.0 mm
01:11 PM 69.6°F20.9°C 51.6°F10.9°C 53% 11.1 mph SE17.9 kmh SE 15.4 mph24.8 kmh 30.11 in1019.6 mb 0.00 in0.0 mm 0.00 in0.0 mm 0.00 in0.0 mm
01:06 PM 68.9°F20.5°C 50.9°F10.5°C 53% 13.2 mph SE21.2 kmh SE 16.5 mph26.6 kmh 30.11 in1019.6 mb 0.00 in0.0 mm 0.00 in0.0 mm 0.00 in0.0 mm
01:01 PM 68.7°F20.4°C 50.4°F10.2°C 52% 12.5 mph SE20.1 kmh SE 16.5 mph26.6 kmh 30.11 in1019.6 mb 0.00 in0.0 mm 0.00 in0.0 mm 0.00 in0.0 mm
12:56 PM 69.1°F20.6°C 51.1°F10.6°C 53% 11.8 mph SE19.0 kmh SE 16.5 mph26.6 kmh 30.11 in1019.6 mb 0.00 in0.0 mm 0.00 in0.0 mm 0.00 in0.0 mm
12:51 PM 68.5°F20.3°C 50.7°F10.4°C 53% 12.5 mph SE20.1 kmh SE 16.5 mph26.6 kmh 30.11 in1019.6 mb 0.00 in0.0 mm 0.00 in0.0 mm 0.00 in0.0 mm
12:46 PM 68.5°F20.3°C 50.7°F10.4°C 53% 12.4 mph SE20.0 kmh SE 15.4 mph24.8 kmh 30.12 in1020.0 mb 0.00 in0.0 mm 0.00 in0.0 mm 0.00 in0.0 mm
12:41 PM 68.4°F20.2°C 50.5°F10.3°C 53% 13.4 mph SE21.6 kmh SE 18.1 mph29.1 kmh 30.12 in1020.0 mb 0.00 in0.0 mm 0.00 in0.0 mm 0.00 in0.0 mm
12:36 PM 68.2°F20.1°C 50.9°F10.5°C 54% 16.2 mph SE26.1 kmh SE 21.7 mph34.9 kmh 30.12 in1020.0 mb 0.00 in0.0 mm 0.00 in0.0 mm 0.00 in0.0 mm
12:31 PM 67.8°F19.9°C 50.5°F10.3°C 54% 15.4 mph SE24.8 kmh SE 21.7 mph34.9 kmh 30.12 in1020.0 mb 0.00 in0.0 mm 0.00 in0.0 mm 0.00 in0.0 mm
12:26 PM 68.4°F20.2°C 50.5°F10.3°C 53% 15.9 mph SE25.6 kmh SE 20.6 mph33.2 kmh 30.13 in1020.3 mb 0.00 in0.0 mm 0.00 in0.0 mm 0.00 in0.0 mm
12:21 PM 68.4°F20.2°C 50.9°F10.5°C 54% 16.1 mph SE25.9 kmh SE 20.6 mph33.2 kmh 30.13 in1020.3 mb 0.00 in0.0 mm 0.00 in0.0 mm 0.00 in0.0 mm
12:16 PM 68.7°F20.4°C 51.3°F10.7°C 54% 14.6 mph SE23.5 kmh SE 20.6 mph33.2 kmh 30.13 in1020.3 mb 0.00 in0.0 mm 0.00 in0.0 mm 0.00 in0.0 mm
12:11 PM 69.1°F20.6°C 51.6°F10.9°C 54% 16.2 mph SE26.1 kmh SE 20.6 mph33.2 kmh 30.13 in1020.3 mb 0.00 in0.0 mm 0.00 in0.0 mm 0.00 in0.0 mm
12:06 PM 69.6°F20.9°C 51.1°F10.6°C 52% 15.2 mph SE24.5 kmh SE 19.3 mph31.1 kmh 30.13 in1020.3 mb 0.00 in0.0 mm 0.00 in0.0 mm 0.00 in0.0 mm
12:01 PM 70.2°F21.2°C 52.2°F11.2°C 53% 15.2 mph SE24.5 kmh SE 19.3 mph31.1 kmh 30.13 in1020.3 mb 0.00 in0.0 mm 0.00 in0.0 mm 0.00 in0.0 mm
11:56 AM 70.3°F21.3°C 51.8°F11.0°C 52% 14.9 mph SE24.0 kmh SE 19.3 mph31.1 kmh 30.14 in1020.7 mb 0.00 in0.0 mm 0.00 in0.0 mm 0.00 in0.0 mm
11:51 AM 70.3°F21.3°C 51.3°F10.7°C 51% 14.9 mph SE24.0 kmh SE 18.1 mph29.1 kmh 30.14 in1020.7 mb 0.00 in0.0 mm 0.00 in0.0 mm 0.00 in0.0 mm
11:46 AM 69.6°F20.9°C 51.1°F10.6°C 52% 16.4 mph SE26.4 kmh SE 18.1 mph29.1 kmh 30.14 in1020.7 mb 0.00 in0.0 mm 0.00 in0.0 mm 0.00 in0.0 mm
11:41 AM 69.8°F21.0°C 51.3°F10.7°C 52% 14.5 mph SE23.3 kmh SE 18.1 mph29.1 kmh 30.15 in1021.0 mb 0.00 in0.0 mm 0.00 in0.0 mm 0.00 in0.0 mm
11:36 AM 69.6°F20.9°C 51.1°F10.6°C 52% 13.4 mph SE21.6 kmh SE 16.5 mph26.6 kmh 30.15 in1021.0 mb 0.00 in0.0 mm 0.00 in0.0 mm 0.00 in0.0 mm
11:31 AM 69.1°F20.6°C 51.1°F10.6°C 53% 15.3 mph SE24.6 kmh SE 19.3 mph31.1 kmh 30.15 in1021.0 mb 0.00 in0.0 mm 0.00 in0.0 mm 0.00 in0.0 mm
11:26 AM 68.5°F20.3°C 51.6°F10.9°C 55% 15.8 mph SE25.4 kmh SE 19.3 mph31.1 kmh 30.15 in1021.0 mb 0.00 in0.0 mm 0.00 in0.0 mm 0.00 in0.0 mm
11:21 AM 68.4°F20.2°C 51.4°F10.8°C 55% 12.9 mph SE20.8 kmh SE 19.3 mph31.1 kmh 30.16 in1021.3 mb 0.00 in0.0 mm 0.00 in0.0 mm 0.00 in0.0 mm
11:16 AM 68.4°F20.2°C 51.4°F10.8°C 55% 12.8 mph SE20.6 kmh SE 19.3 mph31.1 kmh 30.16 in1021.3 mb 0.00 in0.0 mm 0.00 in0.0 mm 0.00 in0.0 mm
11:11 AM 67.6°F19.8°C 51.3°F10.7°C 56% 13.5 mph SE21.7 kmh SE 19.3 mph31.1 kmh 30.16 in1021.3 mb 0.00 in0.0 mm 0.00 in0.0 mm 0.00 in0.0 mm
11:06 AM 68.2°F20.1°C 51.3°F10.7°C 55% 12.2 mph SE19.6 kmh SE 18.1 mph29.1 kmh 30.17 in1021.7 mb 0.00 in0.0 mm 0.00 in0.0 mm 0.00 in0.0 mm
11:01 AM 67.5°F19.7°C 51.6°F10.9°C 57% 13.0 mph SE20.9 kmh SE 18.1 mph29.1 kmh 30.17 in1021.7 mb 0.00 in0.0 mm 0.00 in0.0 mm 0.00 in0.0 mm
10:56 AM 67.1°F19.5°C 51.3°F10.7°C 57% 11.3 mph SE18.2 kmh SE 16.5 mph26.6 kmh 30.17 in1021.7 mb 0.00 in0.0 mm 0.00 in0.0 mm 0.00 in0.0 mm
10:51 AM 67.6°F19.8°C 52.3°F11.3°C 58% 11.1 mph SE17.9 kmh SE 15.4 mph24.8 kmh 30.17 in1021.7 mb 0.00 in0.0 mm 0.00 in0.0 mm 0.00 in0.0 mm
10:46 AM 67.1°F19.5°C 51.8°F11.0°C 58% 13.5 mph SE21.7 kmh SE 16.5 mph26.6 kmh 30.17 in1021.7 mb 0.00 in0.0 mm 0.00 in0.0 mm 0.00 in0.0 mm
10:41 AM 67.1°F19.5°C 51.8°F11.0°C 58% 14.0 mph SE22.5 kmh SE 16.5 mph26.6 kmh 30.18 in1022.0 mb 0.00 in0.0 mm 0.00 in0.0 mm 0.00 in0.0 mm
10:36 AM 67.1°F19.5°C 52.2°F11.2°C 59% 14.4 mph SE23.2 kmh SE 16.5 mph26.6 kmh 30.18 in1022.0 mb 0.00 in0.0 mm 0.00 in0.0 mm 0.00 in0.0 mm
10:31 AM 66.6°F19.2°C 51.6°F10.9°C 59% 15.1 mph SE24.3 kmh SE 18.1 mph29.1 kmh 30.18 in1022.0 mb 0.00 in0.0 mm 0.00 in0.0 mm 0.00 in0.0 mm
10:26 AM 66.6°F19.2°C 51.6°F10.9°C 59% 14.0 mph SE22.5 kmh SE 19.3 mph31.1 kmh 30.18 in1022.0 mb 0.00 in0.0 mm 0.00 in0.0 mm 0.00 in0.0 mm
10:21 AM 66.6°F19.2°C 51.3°F10.7°C 58% 13.7 mph SE22.0 kmh SE 19.3 mph31.1 kmh 30.18 in1022.0 mb 0.00 in0.0 mm 0.00 in0.0 mm 0.00 in0.0 mm
10:16 AM 66.6°F19.2°C 51.3°F10.7°C 58% 15.5 mph SE24.9 kmh SE 19.3 mph31.1 kmh 30.18 in1022.0 mb 0.00 in0.0 mm 0.00 in0.0 mm 0.00 in0.0 mm
10:11 AM 66.4°F19.1°C 51.1°F10.6°C 58% 17.9 mph SE28.8 kmh SE 21.7 mph34.9 kmh 30.18 in1022.0 mb 0.00 in0.0 mm 0.00 in0.0 mm 0.00 in0.0 mm
10:06 AM 66.4°F19.1°C 51.1°F10.6°C 58% 19.9 mph SE32.0 kmh SE 24.4 mph39.3 kmh 30.18 in1022.0 mb 0.00 in0.0 mm 0.00 in0.0 mm 0.00 in0.0 mm
10:01 AM 66.6°F19.2°C 51.3°F10.7°C 58% 19.6 mph SE31.5 kmh SE 24.4 mph39.3 kmh 30.18 in1022.0 mb 0.00 in0.0 mm 0.00 in0.0 mm 0.00 in0.0 mm
09:56 AM 66.6°F19.2°C 51.3°F10.7°C 58% 17.2 mph SE27.7 kmh SE 22.8 mph36.7 kmh 30.18 in1022.0 mb 0.00 in0.0 mm 0.00 in0.0 mm 0.00 in0.0 mm
09:51 AM 66.4°F19.1°C 50.5°F10.3°C 57% 16.9 mph SE27.2 kmh SE 22.8 mph36.7 kmh 30.18 in1022.0 mb 0.00 in0.0 mm 0.00 in0.0 mm 0.00 in0.0 mm
09:46 AM 66.4°F19.1°C 51.6°F10.9°C 59% 17.1 mph SE27.5 kmh SE 22.8 mph36.7 kmh 30.18 in1022.0 mb 0.00 in0.0 mm 0.00 in0.0 mm 0.00 in0.0 mm
09:41 AM 66.4°F19.1°C 52.5°F11.4°C 61% 16.1 mph SE25.9 kmh SE 21.7 mph34.9 kmh 30.18 in1022.0 mb 0.00 in0.0 mm 0.00 in0.0 mm 0.00 in0.0 mm
09:36 AM 66.4°F19.1°C 52.0°F11.1°C 60% 17.0 mph SE27.4 kmh SE 22.8 mph36.7 kmh 30.18 in1022.0 mb 0.00 in0.0 mm 0.00 in0.0 mm 0.00 in0.0 mm
09:31 AM 66.4°F19.1°C 52.0°F11.1°C 60% 19.6 mph SE31.5 kmh SE 22.8 mph36.7 kmh 30.18 in1022.0 mb 0.00 in0.0 mm 0.00 in0.0 mm 0.00 in0.0 mm
09:26 AM 66.4°F19.1°C 52.5°F11.4°C 61% 20.1 mph SE32.3 kmh SE 25.5 mph41.0 kmh 30.18 in1022.0 mb 0.00 in0.0 mm 0.00 in0.0 mm 0.00 in0.0 mm
09:21 AM 66.4°F19.1°C 51.6°F10.9°C 59% 19.4 mph SE31.2 kmh SE 25.5 mph41.0 kmh 30.18 in1022.0 mb 0.00 in0.0 mm 0.00 in0.0 mm 0.00 in0.0 mm
09:16 AM 67.1°F19.5°C 52.7°F11.5°C 60% 18.3 mph SE29.5 kmh SE 22.8 mph36.7 kmh 30.18 in1022.0 mb 0.00 in0.0 mm 0.00 in0.0 mm 0.00 in0.0 mm
09:11 AM 67.5°F19.7°C 53.4°F11.9°C 61% 16.9 mph SE27.2 kmh SE 21.7 mph34.9 kmh 30.18 in1022.0 mb 0.00 in0.0 mm 0.00 in0.0 mm 0.00 in0.0 mm
09:06 AM 67.6°F19.8°C 53.6°F12.0°C 61% 18.5 mph SSE29.8 kmh SSE 22.8 mph36.7 kmh 30.18 in1022.0 mb 0.00 in0.0 mm 0.00 in0.0 mm 0.00 in0.0 mm
09:01 AM 67.1°F19.5°C 53.1°F11.7°C 61% 17.8 mph SSE28.6 kmh SSE 22.8 mph36.7 kmh 30.18 in1022.0 mb 0.00 in0.0 mm 0.00 in0.0 mm 0.00 in0.0 mm
08:56 AM 67.3°F19.6°C 52.9°F11.6°C 60% 16.0 mph SE25.7 kmh SE 22.8 mph36.7 kmh 30.18 in1022.0 mb 0.00 in0.0 mm 0.00 in0.0 mm 0.00 in0.0 mm
08:51 AM 67.5°F19.7°C 53.4°F11.9°C 61% 18.0 mph SSE29.0 kmh SSE 22.8 mph36.7 kmh 30.18 in1022.0 mb 0.00 in0.0 mm 0.00 in0.0 mm 0.00 in0.0 mm
08:46 AM 66.6°F19.2°C 53.1°F11.7°C 62% 18.4 mph SSE29.6 kmh SSE 22.8 mph36.7 kmh 30.18 in1022.0 mb 0.00 in0.0 mm 0.00 in0.0 mm 0.00 in0.0 mm
08:41 AM 66.2°F19.0°C 53.2°F11.8°C 63% 14.9 mph SSE24.0 kmh SSE 19.3 mph31.1 kmh 30.18 in1022.0 mb 0.00 in0.0 mm 0.00 in0.0 mm 0.00 in0.0 mm
08:36 AM 66.0°F18.9°C 53.4°F11.9°C 64% 15.0 mph SSE24.1 kmh SSE 20.6 mph33.2 kmh 30.18 in1022.0 mb 0.00 in0.0 mm 0.00 in0.0 mm 0.00 in0.0 mm
08:31 AM 65.7°F18.7°C 53.1°F11.7°C 64% 15.0 mph SE24.1 kmh SE 22.8 mph36.7 kmh 30.18 in1022.0 mb 0.00 in0.0 mm 0.00 in0.0 mm 0.00 in0.0 mm
08:26 AM 65.3°F18.5°C 52.7°F11.5°C 64% 12.8 mph SE20.6 kmh SE 22.8 mph36.7 kmh 30.17 in1021.7 mb 0.00 in0.0 mm 0.00 in0.0 mm 0.00 in0.0 mm
08:21 AM 65.3°F18.5°C 53.2°F11.8°C 65% 14.9 mph SE24.0 kmh SE 19.3 mph31.1 kmh 30.17 in1021.7 mb 0.00 in0.0 mm 0.00 in0.0 mm 0.00 in0.0 mm
08:16 AM 64.8°F18.2°C 52.7°F11.5°C 65% 15.4 mph SSE24.8 kmh SSE 19.3 mph31.1 kmh 30.17 in1021.7 mb 0.00 in0.0 mm 0.00 in0.0 mm 0.00 in0.0 mm
08:11 AM 64.6°F18.1°C 52.0°F11.1°C 64% 13.6 mph SE21.9 kmh SE 19.3 mph31.1 kmh 30.17 in1021.7 mb 0.00 in0.0 mm 0.00 in0.0 mm 0.00 in0.0 mm
08:06 AM 65.1°F18.4°C 52.2°F11.2°C 63% 13.2 mph SE21.2 kmh SE 18.1 mph29.1 kmh 30.17 in1021.7 mb 0.00 in0.0 mm 0.00 in0.0 mm 0.00 in0.0 mm
08:01 AM 64.9°F18.3°C 52.3°F11.3°C 64% 11.5 mph SE18.5 kmh SE 18.1 mph29.1 kmh 30.17 in1021.7 mb 0.00 in0.0 mm 0.00 in0.0 mm 0.00 in0.0 mm
07:56 AM 64.9°F18.3°C 52.9°F11.6°C 65% 7.6 mph SE12.2 kmh SE 10.3 mph16.6 kmh 30.17 in1021.7 mb 0.00 in0.0 mm 0.00 in0.0 mm 0.00 in0.0 mm
07:51 AM 64.4°F18.0°C 52.3°F11.3°C 65% 7.0 mph SE11.3 kmh SE 8.9 mph14.3 kmh 30.17 in1021.7 mb 0.00 in0.0 mm 0.00 in0.0 mm 0.00 in0.0 mm
07:46 AM 63.5°F17.5°C 52.3°F11.3°C 67% 7.9 mph SE12.7 kmh SE 10.3 mph16.6 kmh 30.17 in1021.7 mb 0.00 in0.0 mm 0.00 in0.0 mm 0.00 in0.0 mm
07:41 AM 62.8°F17.1°C 51.6°F10.9°C 67% 7.1 mph SE11.4 kmh SE 10.3 mph16.6 kmh 30.17 in1021.7 mb 0.00 in0.0 mm 0.00 in0.0 mm 0.00 in0.0 mm
07:36 AM 61.9°F16.6°C 52.0°F11.1°C 70% 6.6 mph SE10.6 kmh SE 10.3 mph16.6 kmh 30.16 in1021.3 mb 0.00 in0.0 mm 0.00 in0.0 mm 0.00 in0.0 mm
07:31 AM 61.0°F16.1°C 51.1°F10.6°C 70% 7.9 mph SE12.7 kmh SE 8.9 mph14.3 kmh 30.16 in1021.3 mb 0.00 in0.0 mm 0.00 in0.0 mm 0.00 in0.0 mm
07:26 AM 61.0°F16.1°C 51.1°F10.6°C 70% 8.8 mph SE14.2 kmh SE 10.3 mph16.6 kmh 30.16 in1021.3 mb 0.00 in0.0 mm 0.00 in0.0 mm 0.00 in0.0 mm
07:21 AM 60.8°F16.0°C 50.9°F10.5°C 70% 9.6 mph SSE15.4 kmh SSE 11.4 mph18.3 kmh 30.16 in1021.3 mb 0.00 in0.0 mm 0.00 in0.0 mm 0.00 in0.0 mm
07:16 AM 60.8°F16.0°C 51.3°F10.7°C 71% 10.2 mph SSE16.4 kmh SSE 13.0 mph20.9 kmh 30.16 in1021.3 mb 0.00 in0.0 mm 0.00 in0.0 mm 0.00 in0.0 mm
07:11 AM 60.8°F16.0°C 51.3°F10.7°C 71% 10.0 mph SSE16.1 kmh SSE 13.0 mph20.9 kmh 30.15 in1021.0 mb 0.00 in0.0 mm 0.00 in0.0 mm 0.00 in0.0 mm
07:01 AM 60.6°F15.9°C 51.1°F10.6°C 71% 10.1 mph SSE16.3 kmh SSE 14.1 mph22.7 kmh 30.15 in1021.0 mb 0.00 in0.0 mm 0.00 in0.0 mm 0.00 in0.0 mm
06:56 AM 60.6°F15.9°C 51.4°F10.8°C 72% 10.1 mph SSE16.3 kmh SSE 14.1 mph22.7 kmh 30.15 in1021.0 mb 0.00 in0.0 mm 0.00 in0.0 mm 0.00 in0.0 mm
06:51 AM 60.6°F15.9°C 51.4°F10.8°C 72% 9.0 mph SSE14.5 kmh SSE 13.0 mph20.9 kmh 30.15 in1021.0 mb 0.00 in0.0 mm 0.00 in0.0 mm 0.00 in0.0 mm
06:46 AM 60.8°F16.0°C 51.6°F10.9°C 72% 8.6 mph SSE13.8 kmh SSE 13.0 mph20.9 kmh 30.14 in1020.7 mb 0.00 in0.0 mm 0.00 in0.0 mm 0.00 in0.0 mm
06:41 AM 61.0°F16.1°C 51.8°F11.0°C 72% 8.9 mph SE14.3 kmh SE 10.3 mph16.6 kmh 30.14 in1020.7 mb 0.00 in0.0 mm 0.00 in0.0 mm 0.00 in0.0 mm
06:36 AM 61.2°F16.2°C 52.0°F11.1°C 72% 10.3 mph SE16.6 kmh SE 15.4 mph24.8 kmh 30.14 in1020.7 mb 0.00 in0.0 mm 0.00 in0.0 mm 0.00 in0.0 mm
06:31 AM 61.2°F16.2°C 51.6°F10.9°C 71% 10.7 mph SSE17.2 kmh SSE 15.4 mph24.8 kmh 30.14 in1020.7 mb 0.00 in0.0 mm 0.00 in0.0 mm 0.00 in0.0 mm
06:21 AM 61.3°F16.3°C 52.2°F11.2°C 72% 9.4 mph SE15.1 kmh SE 13.0 mph20.9 kmh 30.14 in1020.7 mb 0.00 in0.0 mm 0.00 in0.0 mm 0.00 in0.0 mm
06:16 AM 61.3°F16.3°C 52.2°F11.2°C 72% 10.3 mph SE16.6 kmh SE 13.0 mph20.9 kmh 30.14 in1020.7 mb 0.00 in0.0 mm 0.00 in0.0 mm 0.00 in0.0 mm
06:11 AM 61.3°F16.3°C 52.2°F11.2°C 72% 9.5 mph SE15.3 kmh SE 11.4 mph18.3 kmh 30.14 in1020.7 mb 0.00 in0.0 mm 0.00 in0.0 mm 0.00 in0.0 mm
06:06 AM 61.3°F16.3°C 52.2°F11.2°C 72% 9.4 mph SE15.1 kmh SE 13.0 mph20.9 kmh 30.14 in1020.7 mb 0.00 in0.0 mm 0.00 in0.0 mm 0.00 in0.0 mm
06:01 AM 61.3°F16.3°C 52.2°F11.2°C 72% 8.9 mph SE14.3 kmh SE 13.0 mph20.9 kmh 30.14 in1020.7 mb 0.00 in0.0 mm 0.00 in0.0 mm 0.00 in0.0 mm
05:56 AM 61.3°F16.3°C 52.2°F11.2°C 72% 8.3 mph SE13.4 kmh SE 10.3 mph16.6 kmh 30.13 in1020.3 mb 0.00 in0.0 mm 0.00 in0.0 mm 0.00 in0.0 mm
05:41 AM 61.3°F16.3°C 51.8°F11.0°C 71% 8.0 mph SE12.9 kmh SE 8.9 mph14.3 kmh 30.13 in1020.3 mb 0.00 in0.0 mm 0.00 in0.0 mm 0.00 in0.0 mm
05:36 AM 61.2°F16.2°C 51.6°F10.9°C 71% 8.2 mph SE13.2 kmh SE 10.3 mph16.6 kmh 30.13 in1020.3 mb 0.00 in0.0 mm 0.00 in0.0 mm 0.00 in0.0 mm
05:31 AM 61.2°F16.2°C 51.6°F10.9°C 71% 9.4 mph SE15.1 kmh SE 13.0 mph20.9 kmh 30.12 in1020.0 mb 0.00 in0.0 mm 0.00 in0.0 mm 0.00 in0.0 mm
05:26 AM 61.3°F16.3°C 51.8°F11.0°C 71% 9.5 mph SE15.3 kmh SE 13.0 mph20.9 kmh 30.12 in1020.0 mb 0.00 in0.0 mm 0.00 in0.0 mm 0.00 in0.0 mm
05:16 AM 61.3°F16.3°C 51.8°F11.0°C 71% 9.1 mph SE14.6 kmh SE 11.4 mph18.3 kmh 30.12 in1020.0 mb 0.00 in0.0 mm 0.00 in0.0 mm 0.00 in0.0 mm
05:11 AM 61.3°F16.3°C 51.8°F11.0°C 71% 9.2 mph SE14.8 kmh SE 11.4 mph18.3 kmh 30.12 in1020.0 mb 0.00 in0.0 mm 0.00 in0.0 mm 0.00 in0.0 mm
05:01 AM 61.2°F16.2°C 51.6°F10.9°C 71% 9.8 mph SE15.8 kmh SE 11.4 mph18.3 kmh 30.12 in1020.0 mb 0.00 in0.0 mm 0.00 in0.0 mm 0.00 in0.0 mm
04:56 AM 61.2°F16.2°C 52.0°F11.1°C 72% 10.2 mph SE16.4 kmh SE 15.4 mph24.8 kmh 30.12 in1020.0 mb 0.00 in0.0 mm 0.00 in0.0 mm 0.00 in0.0 mm
04:51 AM 61.2°F16.2°C 52.0°F11.1°C 72% 9.6 mph SE15.4 kmh SE 15.4 mph24.8 kmh 30.11 in1019.6 mb 0.00 in0.0 mm 0.00 in0.0 mm 0.00 in0.0 mm
04:46 AM 61.0°F16.1°C 52.2°F11.2°C 73% 8.7 mph SE14.0 kmh SE 11.4 mph18.3 kmh 30.11 in1019.6 mb 0.00 in0.0 mm 0.00 in0.0 mm 0.00 in0.0 mm
04:41 AM 60.8°F16.0°C 52.0°F11.1°C 73% 9.3 mph SE15.0 kmh SE 11.4 mph18.3 kmh 30.11 in1019.6 mb 0.00 in0.0 mm 0.00 in0.0 mm 0.00 in0.0 mm
04:36 AM 60.8°F16.0°C 52.3°F11.3°C 74% 9.7 mph SE15.6 kmh SE 11.4 mph18.3 kmh 30.11 in1019.6 mb 0.00 in0.0 mm 0.00 in0.0 mm 0.00 in0.0 mm
04:31 AM 60.6°F15.9°C 52.5°F11.4°C 75% 9.2 mph SE14.8 kmh SE 11.4 mph18.3 kmh 30.11 in1019.6 mb 0.00 in0.0 mm 0.00 in0.0 mm 0.00 in0.0 mm
04:26 AM 60.1°F15.6°C 52.3°F11.3°C 76% 7.9 mph SSE12.7 kmh SSE 10.3 mph16.6 kmh 30.11 in1019.6 mb 0.00 in0.0 mm 0.00 in0.0 mm 0.00 in0.0 mm
04:21 AM 60.1°F15.6°C 52.7°F11.5°C 77% 5.6 mph SSE9.0 kmh SSE 7.8 mph12.6 kmh 30.11 in1019.6 mb 0.00 in0.0 mm 0.00 in0.0 mm 0.00 in0.0 mm
04:11 AM 60.1°F15.6°C 52.7°F11.5°C 77% 4.8 mph SE7.7 kmh SE 6.3 mph10.1 kmh 30.11 in1019.6 mb 0.00 in0.0 mm 0.00 in0.0 mm 0.00 in0.0 mm
04:06 AM 60.3°F15.7°C 52.5°F11.4°C 76% 3.8 mph SE6.1 kmh SE 5.2 mph8.4 kmh 30.11 in1019.6 mb 0.00 in0.0 mm 0.00 in0.0 mm 0.00 in0.0 mm
04:01 AM 60.8°F16.0°C 53.1°F11.7°C 76% 4.3 mph SE6.9 kmh SE 6.3 mph10.1 kmh 30.11 in1019.6 mb 0.00 in0.0 mm 0.00 in0.0 mm 0.00 in0.0 mm
03:56 AM 61.0°F16.1°C 52.9°F11.6°C 75% 6.5 mph SE10.5 kmh SE 8.9 mph14.3 kmh 30.11 in1019.6 mb 0.00 in0.0 mm 0.00 in0.0 mm 0.00 in0.0 mm
03:51 AM 61.3°F16.3°C 52.9°F11.6°C 74% 8.1 mph SE13.0 kmh SE 8.9 mph14.3 kmh 30.11 in1019.6 mb 0.00 in0.0 mm 0.00 in0.0 mm 0.00 in0.0 mm
03:46 AM 61.3°F16.3°C 52.9°F11.6°C 74% 8.5 mph SE13.7 kmh SE 10.3 mph16.6 kmh 30.11 in1019.6 mb 0.00 in0.0 mm 0.00 in0.0 mm 0.00 in0.0 mm
03:31 AM 61.3°F16.3°C 52.9°F11.6°C 74% 10.0 mph SSE16.1 kmh SSE 10.3 mph16.6 kmh 30.10 in1019.3 mb 0.00 in0.0 mm 0.00 in0.0 mm 0.00 in0.0 mm
03:26 AM 61.5°F16.4°C 52.7°F11.5°C 73% 10.2 mph SSE16.4 kmh SSE 15.4 mph24.8 kmh 30.10 in1019.3 mb 0.00 in0.0 mm 0.00 in0.0 mm 0.00 in0.0 mm
03:21 AM 61.3°F16.3°C 52.5°F11.4°C 73% 8.1 mph SSE13.0 kmh SSE 15.4 mph24.8 kmh 30.10 in1019.3 mb 0.00 in0.0 mm 0.00 in0.0 mm 0.00 in0.0 mm
03:16 AM 61.3°F16.3°C 52.5°F11.4°C 73% 7.6 mph SE12.2 kmh SE 8.9 mph14.3 kmh 30.10 in1019.3 mb 0.00 in0.0 mm 0.00 in0.0 mm 0.00 in0.0 mm
03:06 AM 61.2°F16.2°C 52.3°F11.3°C 73% 6.4 mph SE10.3 kmh SE 7.8 mph12.6 kmh 30.11 in1019.6 mb 0.00 in0.0 mm 0.00 in0.0 mm 0.00 in0.0 mm
02:56 AM 61.3°F16.3°C 52.5°F11.4°C 73% 7.3 mph SE11.7 kmh SE 10.3 mph16.6 kmh 30.11 in1019.6 mb 0.00 in0.0 mm 0.00 in0.0 mm 0.00 in0.0 mm
02:51 AM 61.3°F16.3°C 52.5°F11.4°C 73% 6.7 mph SE10.8 kmh SE 8.9 mph14.3 kmh 30.11 in1019.6 mb 0.00 in0.0 mm 0.00 in0.0 mm 0.00 in0.0 mm
02:41 AM 61.3°F16.3°C 52.2°F11.2°C 72% 7.7 mph SSE12.4 kmh SSE 11.4 mph18.3 kmh 30.11 in1019.6 mb 0.00 in0.0 mm 0.00 in0.0 mm 0.00 in0.0 mm
02:36 AM 61.3°F16.3°C 52.2°F11.2°C 72% 7.4 mph SE11.9 kmh SE 11.4 mph18.3 kmh 30.11 in1019.6 mb 0.00 in0.0 mm 0.00 in0.0 mm 0.00 in0.0 mm
02:31 AM 61.5°F16.4°C 52.3°F11.3°C 72% 7.9 mph SE12.7 kmh SE 11.4 mph18.3 kmh 30.11 in1019.6 mb 0.00 in0.0 mm 0.00 in0.0 mm 0.00 in0.0 mm
02:26 AM 61.9°F16.6°C 52.7°F11.5°C 72% 9.2 mph SE14.8 kmh SE 11.4 mph18.3 kmh 30.11 in1019.6 mb 0.00 in0.0 mm 0.00 in0.0 mm 0.00 in0.0 mm
02:21 AM 61.9°F16.6°C 52.7°F11.5°C 72% 9.9 mph SE15.9 kmh SE 13.0 mph20.9 kmh 30.10 in1019.3 mb 0.00 in0.0 mm 0.00 in0.0 mm 0.00 in0.0 mm
02:16 AM 61.9°F16.6°C 52.7°F11.5°C 72% 10.4 mph SE16.7 kmh SE 14.1 mph22.7 kmh 30.11 in1019.6 mb 0.00 in0.0 mm 0.00 in0.0 mm 0.00 in0.0 mm
02:11 AM 61.9°F16.6°C 52.7°F11.5°C 72% 10.6 mph SE17.1 kmh SE 14.1 mph22.7 kmh 30.11 in1019.6 mb 0.00 in0.0 mm 0.00 in0.0 mm 0.00 in0.0 mm
02:06 AM 61.9°F16.6°C 52.7°F11.5°C 72% 10.3 mph SE16.6 kmh SE 13.0 mph20.9 kmh 30.11 in1019.6 mb 0.00 in0.0 mm 0.00 in0.0 mm 0.00 in0.0 mm
02:01 AM 61.9°F16.6°C 52.7°F11.5°C 72% 10.2 mph SSE16.4 kmh SSE 13.0 mph20.9 kmh 30.11 in1019.6 mb 0.00 in0.0 mm 0.00 in0.0 mm 0.00 in0.0 mm
01:51 AM 62.1°F16.7°C 52.9°F11.6°C 72% 9.1 mph SE14.6 kmh SE 11.4 mph18.3 kmh 30.11 in1019.6 mb 0.00 in0.0 mm 0.00 in0.0 mm 0.00 in0.0 mm
01:46 AM 62.1°F16.7°C 52.9°F11.6°C 72% 9.7 mph SE15.6 kmh SE 11.4 mph18.3 kmh 30.11 in1019.6 mb 0.00 in0.0 mm 0.00 in0.0 mm 0.00 in0.0 mm
01:41 AM 62.1°F16.7°C 52.9°F11.6°C 72% 9.6 mph SSE15.4 kmh SSE 13.0 mph20.9 kmh 30.11 in1019.6 mb 0.00 in0.0 mm 0.00 in0.0 mm 0.00 in0.0 mm
01:36 AM 62.1°F16.7°C 52.9°F11.6°C 72% 9.4 mph SE15.1 kmh SE 13.0 mph20.9 kmh 30.11 in1019.6 mb 0.00 in0.0 mm 0.00 in0.0 mm 0.00 in0.0 mm
01:31 AM 62.2°F16.8°C 52.7°F11.5°C 71% 8.8 mph SE14.2 kmh SE 10.3 mph16.6 kmh 30.12 in1020.0 mb 0.00 in0.0 mm 0.00 in0.0 mm 0.00 in0.0 mm
01:26 AM 62.2°F16.8°C 52.3°F11.3°C 70% 7.7 mph SE12.4 kmh SE 10.3 mph16.6 kmh 30.12 in1020.0 mb 0.00 in0.0 mm 0.00 in0.0 mm 0.00 in0.0 mm
01:21 AM 62.4°F16.9°C 52.5°F11.4°C 70% 7.0 mph SE11.3 kmh SE 8.9 mph14.3 kmh 30.12 in1020.0 mb 0.00 in0.0 mm 0.00 in0.0 mm 0.00 in0.0 mm
01:16 AM 62.4°F16.9°C 52.0°F11.1°C 69% 8.2 mph SE13.2 kmh SE 11.4 mph18.3 kmh 30.12 in1020.0 mb 0.00 in0.0 mm 0.00 in0.0 mm 0.00 in0.0 mm
01:11 AM 62.4°F16.9°C 52.0°F11.1°C 69% 9.3 mph SE15.0 kmh SE 11.4 mph18.3 kmh 30.12 in1020.0 mb 0.00 in0.0 mm 0.00 in0.0 mm 0.00 in0.0 mm
01:06 AM 62.6°F17.0°C 52.2°F11.2°C 69% 9.2 mph SE14.8 kmh SE 11.4 mph18.3 kmh 30.12 in1020.0 mb 0.00 in0.0 mm 0.00 in0.0 mm 0.00 in0.0 mm
12:56 AM 62.4°F16.9°C 52.0°F11.1°C 69% 10.5 mph SE16.9 kmh SE 14.1 mph22.7 kmh 30.12 in1020.0 mb 0.00 in0.0 mm 0.00 in0.0 mm 0.00 in0.0 mm
12:51 AM 62.6°F17.0°C 52.2°F11.2°C 69% 10.0 mph SE16.1 kmh SE 14.1 mph22.7 kmh 30.12 in1020.0 mb 0.00 in0.0 mm 0.00 in0.0 mm 0.00 in0.0 mm
12:46 AM 62.4°F16.9°C 52.0°F11.1°C 69% 9.2 mph SE14.8 kmh SE 13.0 mph20.9 kmh 30.13 in1020.3 mb 0.00 in0.0 mm 0.00 in0.0 mm 0.00 in0.0 mm
12:41 AM 62.6°F17.0°C 52.2°F11.2°C 69% 8.9 mph SE14.3 kmh SE 10.3 mph16.6 kmh 30.13 in1020.3 mb 0.00 in0.0 mm 0.00 in0.0 mm 0.00 in0.0 mm
12:36 AM 62.8°F17.1°C 52.3°F11.3°C 69% 10.5 mph SE16.9 kmh SE 14.1 mph22.7 kmh 30.13 in1020.3 mb 0.00 in0.0 mm 0.00 in0.0 mm 0.00 in0.0 mm
12:31 AM 62.8°F17.1°C 52.3°F11.3°C 69% 10.0 mph SE16.1 kmh SE 14.1 mph22.7 kmh 30.13 in1020.3 mb 0.00 in0.0 mm 0.00 in0.0 mm 0.00 in0.0 mm
12:26 AM 62.8°F17.1°C 52.7°F11.5°C 70% 9.4 mph SE15.1 kmh SE 13.0 mph20.9 kmh 30.13 in1020.3 mb 0.00 in0.0 mm 0.00 in0.0 mm 0.00 in0.0 mm
12:21 AM 62.8°F17.1°C 52.7°F11.5°C 70% 9.3 mph SE15.0 kmh SE 13.0 mph20.9 kmh 30.13 in1020.3 mb 0.00 in0.0 mm 0.00 in0.0 mm 0.00 in0.0 mm
12:16 AM 62.8°F17.1°C 52.7°F11.5°C 70% 10.0 mph SE16.1 kmh SE 13.0 mph20.9 kmh 30.13 in1020.3 mb 0.00 in0.0 mm 0.00 in0.0 mm 0.00 in0.0 mm
12:01 AM 62.6°F17.0°C 53.1°F11.7°C 71% 12.5 mph SE20.1 kmh SE 19.3 mph31.1 kmh 30.13 in1020.3 mb 0.00 in0.0 mm 0.00 in0.0 mm 0.00 in0.0 mm